createdAt,value
2019-04-20T00:00:55.072Z,8.55
2019-04-20T00:03:38.058Z,8.50
2019-04-20T00:06:09.254Z,8.43
2019-04-20T00:08:46.267Z,8.37
2019-04-20T00:11:28.180Z,8.32
2019-04-20T00:14:08.302Z,8.26
2019-04-20T00:16:39.829Z,8.24
2019-04-20T00:19:22.577Z,8.22
2019-04-20T00:22:00.297Z,8.18
2019-04-20T00:24:37.582Z,8.12
2019-04-20T00:27:40.534Z,8.06
2019-04-20T00:30:08.930Z,8.00
2019-04-20T00:32:49.017Z,7.96
2019-04-20T00:35:08.207Z,7.90
2019-04-20T00:37:44.607Z,7.84
2019-04-20T00:40:21.502Z,7.79
2019-04-20T00:42:59.799Z,7.76
2019-04-20T00:45:40.074Z,7.68
2019-04-20T00:48:22.479Z,7.65
2019-04-20T00:51:11.558Z,7.61
2019-04-20T00:53:33.349Z,7.61
2019-04-20T00:56:07.457Z,7.63
2019-04-20T00:58:58.092Z,7.62
2019-04-20T01:01:44.162Z,7.57
2019-04-20T01:06:50.005Z,7.51
2019-04-20T01:09:18.234Z,7.47
2019-04-20T01:11:54.523Z,7.39
2019-04-20T01:14:39.944Z,7.33
2019-04-20T01:17:11.985Z,7.29
2019-04-20T01:19:48.809Z,7.23
2019-04-20T01:22:28.268Z,7.13
2019-04-20T01:25:09.774Z,7.07
2019-04-20T01:28:01.027Z,7.00
2019-04-20T01:30:25.152Z,6.92
2019-04-20T01:33:12.460Z,6.86
2019-04-20T01:35:52.167Z,6.81
2019-04-20T01:38:26.328Z,6.78
2019-04-20T01:40:50.569Z,6.77
2019-04-20T01:43:27.037Z,6.67
2019-04-20T01:46:11.263Z,6.62
2019-04-20T01:48:41.946Z,6.57
2019-04-20T01:51:23.419Z,6.57
2019-04-20T01:54:12.108Z,6.53
2019-04-20T01:56:47.583Z,6.46
2019-04-20T01:59:39.950Z,6.45
2019-04-20T02:02:15.229Z,6.39
2019-04-20T02:04:53.436Z,6.32
2019-04-20T02:07:35.026Z,6.26
2019-04-20T02:10:11.358Z,6.24
2019-04-20T02:12:50.313Z,6.19
2019-04-20T02:15:30.997Z,6.15
2019-04-20T02:18:14.929Z,6.12
2019-04-20T02:21:01.384Z,6.11
2019-04-20T02:23:33.014Z,6.07
2019-04-20T02:25:55.082Z,6.06
2019-04-20T02:28:58.102Z,6.05
2019-04-20T02:32:04.994Z,6.09
2019-04-20T02:37:24.597Z,6.12
2019-04-20T02:40:05.219Z,6.11
2019-04-20T02:47:54.937Z,6.06
2019-04-20T02:50:30.862Z,6.06
2019-04-20T02:53:15.585Z,6.04
2019-04-20T02:55:53.445Z,5.99
2019-04-20T02:58:23.640Z,6.01
2019-04-20T03:00:52.741Z,5.98
2019-04-20T03:03:19.566Z,5.92
2019-04-20T03:06:01.337Z,5.89
2019-04-20T03:08:38.218Z,5.86
2019-04-20T03:11:26.221Z,5.82
2019-04-20T03:13:57.851Z,5.85
2019-04-20T03:16:32.183Z,5.81
2019-04-20T03:19:12.948Z,5.82
2019-04-20T03:22:01.380Z,5.79
2019-04-20T03:24:33.741Z,5.81
2019-04-20T03:27:07.915Z,5.78
2019-04-20T03:29:52.663Z,5.73
2019-04-20T03:35:25.051Z,5.69
2019-04-20T03:37:46.567Z,5.70
2019-04-20T03:40:19.121Z,5.70
2019-04-20T03:42:39.976Z,5.69
2019-04-20T03:45:19.341Z,5.67
2019-04-20T03:48:08.314Z,5.69
2019-04-20T03:50:50.815Z,5.69
2019-04-20T03:53:29.815Z,5.69
2019-04-20T03:56:19.489Z,5.74
2019-04-20T03:58:57.229Z,5.74
2019-04-20T04:02:09.313Z,5.80
2019-04-20T04:04:27.155Z,5.83
2019-04-20T04:06:51.695Z,6.00
2019-04-20T04:09:32.966Z,6.28
2019-04-20T04:12:41.776Z,6.86
2019-04-20T04:15:16.759Z,7.68
2019-04-20T04:17:53.116Z,9.03
2019-04-20T04:20:38.720Z,10.13
2019-04-20T04:23:22.089Z,11.09
2019-04-20T04:26:05.853Z,11.80
2019-04-20T04:28:40.992Z,12.56
2019-04-20T04:31:24.243Z,13.21
2019-04-20T04:33:58.112Z,13.79
2019-04-20T04:36:35.929Z,14.46
2019-04-20T04:39:15.480Z,14.93
2019-04-20T04:42:05.215Z,15.29
2019-04-20T04:44:26.300Z,14.87
2019-04-20T04:46:56.060Z,13.54
2019-04-20T04:49:34.399Z,12.10
2019-04-20T04:52:10.329Z,11.08
2019-04-20T04:54:53.334Z,10.34
2019-04-20T04:57:22.244Z,9.80
2019-04-20T04:59:59.438Z,9.39
2019-04-20T05:02:43.251Z,9.11
2019-04-20T05:05:35.558Z,8.87
2019-04-20T05:08:02.920Z,8.68
2019-04-20T05:10:31.221Z,8.54
2019-04-20T05:13:07.205Z,8.39
2019-04-20T05:15:57.997Z,8.31
2019-04-20T05:18:48.359Z,8.24
2019-04-20T05:21:21.620Z,8.27
2019-04-20T05:24:04.498Z,8.24
2019-04-20T05:26:53.417Z,8.23
2019-04-20T05:29:12.525Z,8.19
2019-04-20T05:31:49.044Z,8.18
2019-04-20T05:34:45.388Z,8.24
2019-04-20T05:37:27.218Z,8.29
2019-04-20T05:39:57.762Z,8.32
2019-04-20T05:42:40.711Z,8.36
2019-04-20T05:45:11.564Z,8.38
2019-04-20T05:47:50.835Z,8.42
2019-04-20T05:50:28.958Z,8.43
2019-04-20T05:53:07.253Z,8.54
2019-04-20T05:55:47.255Z,8.62
2019-04-20T05:58:22.090Z,8.76
2019-04-20T06:01:02.815Z,8.90
2019-04-20T06:03:32.229Z,9.03
2019-04-20T06:06:20.626Z,9.18
2019-04-20T06:08:59.597Z,9.34
2019-04-20T06:11:32.005Z,9.43
2019-04-20T06:14:11.373Z,9.60
2019-04-20T06:17:04.872Z,9.71
2019-04-20T06:19:39.535Z,9.77
2019-04-20T06:22:28.558Z,9.94
2019-04-20T06:25:17.021Z,10.02
2019-04-20T06:27:49.939Z,10.08
2019-04-20T06:30:14.085Z,10.13
2019-04-20T06:33:55.294Z,10.27
2019-04-20T06:36:24.196Z,10.40
2019-04-20T06:39:02.283Z,10.54
2019-04-20T06:41:45.542Z,10.67
2019-04-20T06:44:21.591Z,10.81
2019-04-20T06:46:53.659Z,10.90
2019-04-20T06:49:31.518Z,11.02
2019-04-20T06:52:13.769Z,11.15
2019-04-20T06:54:45.174Z,11.27
2019-04-20T06:57:18.458Z,11.38
2019-04-20T07:02:35.982Z,11.64
2019-04-20T07:05:12.760Z,11.81
2019-04-20T07:07:54.773Z,11.95
2019-04-20T07:10:32.476Z,12.11
2019-04-20T07:13:00.280Z,12.25
2019-04-20T07:15:40.138Z,12.38
2019-04-20T07:18:29.927Z,12.43
2019-04-20T07:21:12.775Z,12.56
2019-04-20T07:23:54.527Z,12.69
2019-04-20T07:26:31.295Z,12.84
2019-04-20T07:29:13.658Z,12.96
2019-04-20T07:31:39.352Z,13.03
2019-04-20T07:34:21.084Z,13.13
2019-04-20T07:37:09.843Z,13.22
2019-04-20T07:39:36.383Z,13.29
2019-04-20T07:42:16.747Z,13.36
2019-04-20T07:44:57.984Z,13.47
2019-04-20T07:47:38.699Z,13.56
2019-04-20T07:50:04.917Z,13.63
2019-04-20T07:52:36.987Z,13.78
2019-04-20T07:57:53.722Z,14.02
2019-04-20T08:00:51.934Z,14.12
2019-04-20T08:03:32.069Z,14.23
2019-04-20T08:05:51.202Z,14.32
2019-04-20T08:08:32.745Z,14.44
2019-04-20T08:11:17.876Z,14.60
2019-04-20T08:13:58.727Z,14.72
2019-04-20T08:16:42.378Z,14.86
2019-04-20T08:19:04.752Z,14.98
2019-04-20T08:21:47.300Z,15.10
2019-04-20T08:24:21.317Z,15.19
2019-04-20T08:26:50.339Z,15.32
2019-04-20T08:29:41.796Z,15.41
2019-04-20T08:32:24.079Z,15.50
2019-04-20T08:35:05.233Z,15.51
2019-04-20T08:37:40.192Z,15.67
2019-04-20T08:40:19.555Z,15.81
2019-04-20T08:43:02.464Z,15.94
2019-04-20T08:48:17.412Z,16.23
2019-04-20T08:50:51.340Z,16.37
2019-04-20T08:53:33.497Z,16.43
2019-04-20T08:55:59.076Z,16.46
2019-04-20T08:58:23.271Z,16.49
2019-04-20T09:01:03.356Z,16.59
2019-04-20T09:03:51.229Z,16.65
2019-04-20T09:06:32.328Z,16.72
2019-04-20T09:09:19.770Z,16.77
2019-04-20T09:11:49.236Z,16.84
2019-04-20T09:14:10.928Z,16.97
2019-04-20T09:16:57.070Z,17.15
2019-04-20T09:19:42.130Z,17.20
2019-04-20T09:22:34.265Z,17.30
2019-04-20T09:25:50.327Z,17.45
2019-04-20T09:28:07.490Z,17.50
2019-04-20T09:30:48.133Z,17.60
2019-04-20T09:33:44.138Z,17.62
2019-04-20T09:36:39.828Z,17.68
2019-04-20T09:39:21.381Z,17.70
2019-04-20T09:42:00.753Z,17.81
2019-04-20T09:44:37.520Z,17.85
2019-04-20T09:47:10.464Z,17.94
2019-04-20T09:49:58.036Z,18.01
2019-04-20T09:52:39.903Z,18.12
2019-04-20T09:55:18.760Z,18.20
2019-04-20T09:58:05.164Z,18.32
2019-04-20T10:00:58.825Z,18.31
2019-04-20T10:03:22.708Z,18.35
2019-04-20T10:05:59.275Z,18.39
2019-04-20T10:08:44.749Z,18.42
2019-04-20T10:11:14.141Z,18.45
2019-04-20T10:13:52.278Z,18.54
2019-04-20T10:16:29.464Z,18.59
2019-04-20T10:19:07.180Z,18.72
2019-04-20T10:21:43.643Z,18.81
2019-04-20T10:24:20.907Z,18.71
2019-04-20T10:26:57.038Z,18.77
2019-04-20T10:29:35.474Z,18.79
2019-04-20T10:32:15.522Z,18.79
2019-04-20T10:34:50.699Z,18.80
2019-04-20T10:37:29.344Z,18.73
2019-04-20T10:40:07.268Z,18.84
2019-04-20T10:42:44.009Z,18.90
2019-04-20T10:45:21.271Z,18.94
2019-04-20T10:47:57.398Z,19.08
2019-04-20T10:50:34.512Z,19.19
2019-04-20T10:53:12.105Z,19.33
2019-04-20T10:55:49.520Z,19.40
2019-04-20T10:58:25.615Z,19.47
2019-04-20T11:01:01.808Z,19.43
2019-04-20T11:03:38.456Z,19.44
2019-04-20T11:06:14.622Z,19.38
2019-04-20T11:08:50.809Z,19.43
2019-04-20T11:11:29.180Z,19.47
2019-04-20T11:14:08.348Z,19.49
2019-04-20T11:16:44.386Z,19.55
2019-04-20T11:19:21.176Z,19.69
2019-04-20T11:21:58.497Z,19.79
2019-04-20T11:24:34.623Z,19.93
2019-04-20T11:27:12.052Z,20.08
2019-04-20T11:29:49.836Z,20.06
2019-04-20T11:32:26.297Z,20.25
2019-04-20T11:35:11.079Z,20.33
2019-04-20T11:37:39.992Z,20.32
2019-04-20T11:40:17.000Z,20.30
2019-04-20T11:42:53.383Z,20.16
2019-04-20T11:45:30.825Z,20.14
2019-04-20T11:48:07.484Z,19.97
2019-04-20T11:50:43.502Z,19.82
2019-04-20T11:53:19.473Z,19.72
2019-04-20T11:55:56.277Z,19.77
2019-04-20T11:58:33.136Z,19.78
2019-04-20T12:01:27.175Z,19.83
2019-04-20T12:04:09.280Z,19.81
2019-04-20T12:06:39.125Z,19.93
2019-04-20T12:09:15.217Z,19.87
2019-04-20T12:12:04.178Z,19.92
2019-04-20T12:14:28.797Z,19.96
2019-04-20T12:17:05.898Z,19.95
2019-04-20T12:19:43.873Z,19.86
2019-04-20T12:22:19.895Z,19.94
2019-04-20T12:24:56.243Z,19.96
2019-04-20T12:27:32.553Z,20.02
2019-04-20T12:30:12.094Z,20.04
2019-04-20T12:32:52.654Z,19.94
2019-04-20T12:35:26.494Z,19.81
2019-04-20T12:38:03.107Z,19.85
2019-04-20T12:40:39.953Z,19.81
2019-04-20T12:43:17.197Z,19.85
2019-04-20T12:45:53.838Z,19.85
2019-04-20T12:48:31.506Z,19.87
2019-04-20T12:51:07.832Z,19.95
2019-04-20T12:53:44.540Z,20.07
2019-04-20T12:56:20.491Z,20.17
2019-04-20T12:58:57.780Z,20.15
2019-04-20T13:01:33.716Z,20.22
2019-04-20T13:04:09.678Z,20.33
2019-04-20T13:06:46.976Z,20.38
2019-04-20T13:09:23.142Z,20.47
2019-04-20T13:12:05.476Z,20.29
2019-04-20T13:14:52.701Z,20.39
2019-04-20T13:17:28.586Z,20.43
2019-04-20T13:20:07.887Z,20.51
2019-04-20T13:22:44.317Z,20.46
2019-04-20T13:25:21.058Z,20.42
2019-04-20T13:27:57.164Z,20.31
2019-04-20T13:30:33.527Z,20.47
2019-04-20T13:33:10.120Z,20.50
2019-04-20T13:35:46.267Z,20.55
2019-04-20T13:38:22.512Z,20.67
2019-04-20T13:40:59.887Z,20.47
2019-04-20T13:43:35.971Z,20.43
2019-04-20T13:46:13.263Z,20.27
2019-04-20T13:48:49.419Z,20.50
2019-04-20T13:51:26.542Z,20.70
2019-04-20T13:54:07.379Z,20.85
2019-04-20T13:56:41.768Z,20.95
2019-04-20T13:59:25.857Z,21.04
2019-04-20T14:02:06.831Z,21.04
2019-04-20T14:04:44.568Z,21.09
2019-04-20T14:07:21.884Z,21.01
2019-04-20T14:09:57.950Z,20.90
2019-04-20T14:12:38.622Z,20.90
2019-04-20T14:15:13.217Z,20.99
2019-04-20T14:17:49.254Z,20.96
2019-04-20T14:20:26.021Z,21.06
2019-04-20T14:23:03.216Z,21.01
2019-04-20T14:25:39.323Z,21.06
2019-04-20T14:28:15.520Z,21.13
2019-04-20T14:30:52.015Z,20.96
2019-04-20T14:33:28.628Z,20.78
2019-04-20T14:36:05.209Z,20.79
2019-04-20T14:38:43.731Z,20.70
2019-04-20T14:41:20.143Z,20.50
2019-04-20T14:43:57.286Z,20.39
2019-04-20T14:46:33.644Z,20.29
2019-04-20T14:49:10.423Z,20.21
2019-04-20T14:51:47.723Z,20.18
2019-04-20T14:54:23.864Z,20.13
2019-04-20T14:57:01.265Z,20.11
2019-04-20T14:59:39.065Z,20.02
2019-04-20T15:02:17.398Z,19.91
2019-04-20T15:04:54.823Z,19.94
2019-04-20T15:07:30.952Z,20.09
2019-04-20T15:10:08.999Z,20.19
2019-04-20T15:12:49.917Z,20.25
2019-04-20T15:15:22.948Z,20.19
2019-04-20T15:18:09.459Z,20.26
2019-04-20T15:20:47.795Z,20.30
2019-04-20T15:23:25.708Z,20.24
2019-04-20T15:26:02.433Z,20.01
2019-04-20T15:28:38.648Z,19.95
2019-04-20T15:31:14.696Z,19.88
2019-04-20T15:33:50.888Z,19.85
2019-04-20T15:36:28.365Z,19.79
2019-04-20T15:39:07.327Z,19.75
2019-04-20T15:41:45.298Z,19.68
2019-04-20T15:44:23.242Z,19.63
2019-04-20T15:46:59.436Z,19.48
2019-04-20T15:49:35.842Z,19.40
2019-04-20T15:52:17.906Z,19.37
2019-04-20T15:54:49.949Z,19.27
2019-04-20T15:57:29.135Z,19.31
2019-04-20T16:00:06.561Z,19.28
2019-04-20T16:02:53.698Z,19.21
2019-04-20T16:05:49.629Z,19.17
2019-04-20T16:08:38.975Z,19.07
2019-04-20T16:11:15.347Z,18.97
2019-04-20T16:13:53.903Z,18.93
2019-04-20T16:16:29.967Z,18.87
2019-04-20T16:19:13.637Z,18.79
2019-04-20T16:21:43.929Z,18.74
2019-04-20T16:24:22.349Z,18.68
2019-04-20T16:26:59.912Z,18.59
2019-04-20T16:29:36.421Z,18.52
2019-04-20T16:32:14.361Z,18.46
2019-04-20T16:34:50.742Z,18.35
2019-04-20T16:37:26.719Z,18.32
2019-04-20T16:40:04.295Z,18.26
2019-04-20T16:42:42.265Z,18.17
2019-04-20T16:45:19.145Z,18.02
2019-04-20T16:47:55.141Z,17.91
2019-04-20T16:50:31.301Z,17.85
2019-04-20T16:53:08.769Z,17.76
2019-04-20T16:55:45.378Z,17.66
2019-04-20T16:58:21.735Z,17.57
2019-04-20T17:00:59.266Z,17.49
2019-04-20T17:03:45.970Z,17.44
2019-04-20T17:06:13.847Z,17.37
2019-04-20T17:08:51.202Z,17.31
2019-04-20T17:11:27.768Z,17.25
2019-04-20T17:14:03.822Z,17.20
2019-04-20T17:16:39.788Z,17.14
2019-04-20T17:19:15.731Z,17.04
2019-04-20T17:21:53.379Z,16.97
2019-04-20T17:24:29.687Z,16.90
2019-04-20T17:27:10.852Z,16.81
2019-04-20T17:30:05.260Z,16.75
2019-04-20T17:32:43.359Z,16.69
2019-04-20T17:35:32.878Z,16.61
2019-04-20T17:37:58.437Z,16.55
2019-04-20T17:40:55.914Z,16.50
2019-04-20T17:43:22.994Z,16.43
2019-04-20T17:46:00.656Z,16.38
2019-04-20T17:48:39.964Z,16.31
2019-04-20T17:51:27.734Z,16.23
2019-04-20T17:53:54.546Z,16.16
2019-04-20T17:56:26.414Z,16.08
2019-04-20T17:59:02.409Z,16.01
2019-04-20T18:02:07.831Z,15.94
2019-04-20T18:05:14.495Z,15.87
2019-04-20T18:07:46.287Z,15.82
2019-04-20T18:10:22.661Z,15.77
2019-04-20T18:12:46.262Z,15.71
2019-04-20T18:15:39.074Z,15.72
2019-04-20T18:18:32.385Z,15.68
2019-04-20T18:21:10.806Z,15.64
2019-04-20T18:23:49.836Z,15.57
2019-04-20T18:26:45.448Z,15.47
2019-04-20T18:29:25.674Z,15.39
2019-04-20T18:31:57.712Z,15.33
2019-04-20T18:34:45.836Z,15.28
2019-04-20T18:37:21.464Z,15.23
2019-04-20T18:40:03.086Z,15.21
2019-04-20T18:42:40.665Z,15.18
2019-04-20T18:45:28.463Z,15.15
2019-04-20T18:48:11.690Z,15.07
2019-04-20T18:50:37.670Z,15.01
2019-04-20T18:53:05.995Z,14.96
2019-04-20T18:55:52.741Z,14.92
2019-04-20T18:58:31.216Z,14.88
2019-04-20T19:01:07.630Z,14.87
2019-04-20T19:03:45.520Z,14.82
2019-04-20T19:06:21.528Z,14.75
2019-04-20T19:08:58.990Z,14.70
2019-04-20T19:11:55.899Z,14.68
2019-04-20T19:14:34.932Z,14.64
2019-04-20T19:17:17.218Z,14.57
2019-04-20T19:19:53.441Z,14.46
2019-04-20T19:22:28.085Z,14.34
2019-04-20T19:25:05.600Z,14.31
2019-04-20T19:27:48.568Z,14.26
2019-04-20T19:30:31.339Z,14.24
2019-04-20T19:33:17.557Z,14.24
2019-04-20T19:35:48.143Z,14.21
2019-04-20T19:38:20.677Z,14.15
2019-04-20T19:41:01.735Z,14.07
2019-04-20T19:43:41.137Z,13.95
2019-04-20T19:46:39.669Z,13.78
2019-04-20T19:48:56.551Z,13.60
2019-04-20T19:51:47.679Z,13.50
2019-04-20T19:54:26.914Z,13.48
2019-04-20T19:56:58.287Z,13.46
2019-04-20T19:59:25.983Z,13.39
2019-04-20T20:01:57.962Z,13.29
2019-04-20T20:04:41.443Z,13.27
2019-04-20T20:07:21.983Z,13.27
2019-04-20T20:09:55.519Z,13.21
2019-04-20T20:12:29.527Z,13.07
2019-04-20T20:15:14.847Z,12.96
2019-04-20T20:18:05.809Z,12.89
2019-04-20T20:20:41.247Z,12.73
2019-04-20T20:23:01.602Z,12.69
2019-04-20T20:25:44.683Z,12.58
2019-04-20T20:28:32.241Z,12.52
2019-04-20T20:31:12.369Z,12.51
2019-04-20T20:33:55.948Z,12.47
2019-04-20T20:36:23.003Z,12.48
2019-04-20T20:39:04.484Z,12.48
2019-04-20T20:41:45.072Z,12.44
2019-04-20T20:44:26.096Z,12.43
2019-04-20T20:47:00.787Z,12.33
2019-04-20T20:49:48.649Z,12.28
2019-04-20T20:52:21.912Z,12.23
2019-04-20T20:54:56.492Z,12.16
2019-04-20T20:57:24.353Z,12.05
2019-04-20T21:00:03.676Z,12.00
2019-04-20T21:02:44.733Z,11.94
2019-04-20T21:05:15.559Z,11.84
2019-04-20T21:07:51.713Z,11.75
2019-04-20T21:10:33.077Z,11.68
2019-04-20T21:13:10.031Z,11.64
2019-04-20T21:15:52.269Z,11.62
2019-04-20T21:18:43.524Z,11.60
2019-04-20T21:21:17.028Z,11.56
2019-04-20T21:23:48.135Z,11.54
2019-04-20T21:26:28.033Z,11.53
2019-04-20T21:28:52.982Z,11.42
2019-04-20T21:31:29.713Z,11.36
2019-04-20T21:34:12.654Z,11.25
2019-04-20T21:36:45.059Z,11.13
2019-04-20T21:39:32.429Z,11.00
2019-04-20T21:42:05.411Z,10.90
2019-04-20T21:44:41.344Z,10.77
2019-04-20T21:47:17.726Z,10.65
2019-04-20T21:50:09.842Z,10.48
2019-04-20T21:52:36.139Z,10.37
2019-04-20T21:55:08.314Z,10.31
2019-04-20T21:57:50.115Z,10.21
2019-04-20T22:00:44.536Z,10.11
2019-04-20T22:03:18.536Z,10.04
2019-04-20T22:06:04.511Z,9.97
2019-04-20T22:08:49.594Z,9.92
2019-04-20T22:11:20.052Z,9.82
2019-04-20T22:13:57.369Z,9.77
2019-04-20T22:16:38.884Z,9.70
2019-04-20T22:19:26.438Z,9.62
2019-04-20T22:22:00.999Z,9.62
2019-04-20T22:24:57.790Z,9.52
2019-04-20T22:27:36.703Z,9.47
2019-04-20T22:30:24.054Z,9.42
2019-04-20T22:33:18.571Z,9.42
2019-04-20T22:36:04.112Z,9.38
2019-04-20T22:38:59.432Z,9.38
2019-04-20T22:41:54.670Z,9.33
2019-04-20T22:44:30.346Z,9.29
2019-04-20T22:47:13.883Z,9.24
2019-04-20T22:50:07.856Z,9.19
2019-04-20T22:52:43.052Z,9.14
2019-04-20T22:55:27.110Z,9.00
2019-04-20T22:57:54.653Z,9.03
2019-04-20T23:00:36.525Z,9.00
2019-04-20T23:03:00.845Z,8.98
2019-04-20T23:05:38.618Z,8.94
2019-04-20T23:08:15.005Z,8.93
2019-04-20T23:10:51.451Z,8.88
2019-04-20T23:13:34.360Z,8.84
2019-04-20T23:16:06.108Z,8.84
2019-04-20T23:18:44.315Z,8.77
2019-04-20T23:21:21.715Z,8.74
2019-04-20T23:24:00.328Z,8.76
2019-04-20T23:26:38.692Z,8.74
2019-04-20T23:29:13.412Z,8.76
2019-04-20T23:31:56.937Z,8.77
2019-04-20T23:34:30.988Z,8.80
2019-04-20T23:37:09.924Z,8.77
2019-04-20T23:39:44.995Z,8.74
2019-04-20T23:42:27.972Z,8.68
2019-04-20T23:45:07.540Z,8.65
2019-04-20T23:47:54.118Z,8.64
2019-04-20T23:50:43.567Z,8.63
2019-04-20T23:53:19.844Z,8.60
2019-04-20T23:55:41.685Z,8.62
2019-04-20T23:58:18.219Z,8.65
